Time,TemperatureF,DewpointF,PressureIn,WindDirection,WindDirectionDegrees,WindSpeedMPH,WindSpeedGustMPH,Humidity,HourlyPrecipIn,Conditions,Clouds,dailyrainin,SoftwareType,DateUTC
2013-03-08 00:02:00,30.0,21.0,29.75,East,90,0.0,2.0,69,0.00,,,0.00,meteohub,2013-03-08 06:02:00,
2013-03-08 00:07:00,29.8,21.0,29.75,East,90,0.0,0.0,69,0.00,,,0.00,meteohub,2013-03-08 06:07:00,
2013-03-08 00:12:00,29.7,20.8,29.75,East,90,0.0,0.0,69,0.00,,,0.00,meteohub,2013-03-08 06:12:00,
2013-03-08 00:17:00,29.7,20.8,29.75,ENE,68,0.0,2.0,69,0.00,,,0.00,meteohub,2013-03-08 06:17:00,
2013-03-08 00:22:00,29.7,21.0,29.75,ENE,68,0.0,2.0,70,0.00,,,0.00,meteohub,2013-03-08 06:22:00,
2013-03-08 00:27:00,29.5,20.7,29.75,NE,45,3.0,3.0,69,0.00,,,0.00,meteohub,2013-03-08 06:27:00,
2013-03-08 00:32:00,29.7,21.0,29.75,ENE,68,3.0,3.0,70,0.00,,,0.00,meteohub,2013-03-08 06:32:00,
2013-03-08 00:37:00,29.7,21.4,29.75,East,90,2.0,3.0,71,0.00,,,0.00,meteohub,2013-03-08 06:37:00,
2013-03-08 00:42:00,29.5,21.2,29.75,ENE,68,1.0,3.0,71,0.00,,,0.00,meteohub,2013-03-08 06:42:00,
2013-03-08 00:47:00,29.5,21.2,29.75,NE,45,2.0,3.0,71,0.00,,,0.00,meteohub,2013-03-08 06:47:00,
2013-03-08 00:53:00,29.7,21.4,29.75,ENE,68,2.0,2.0,71,0.00,,,0.00,meteohub,2013-03-08 06:53:00,
2013-03-08 00:58:00,29.5,21.2,29.75,East,90,0.0,3.0,71,0.00,,,0.00,meteohub,2013-03-08 06:58:00,
2013-03-08 01:03:00,29.3,21.0,29.75,East,90,0.0,3.0,71,0.00,,,0.00,meteohub,2013-03-08 07:03:00,
2013-03-08 01:08:00,29.1,20.8,29.78,East,90,0.0,3.0,71,0.00,,,0.00,meteohub,2013-03-08 07:08:00,
2013-03-08 01:13:00,29.1,20.8,29.78,East,90,0.0,2.0,71,0.00,,,0.00,meteohub,2013-03-08 07:13:00,
2013-03-08 01:18:00,29.1,20.8,29.78,ENE,68,1.0,0.0,71,0.00,,,0.00,meteohub,2013-03-08 07:18:00,
2013-03-08 01:23:00,29.3,21.0,29.78,East,90,0.0,2.0,71,0.00,,,0.00,meteohub,2013-03-08 07:23:00,
2013-03-08 01:28:00,29.3,21.0,29.78,ENE,68,2.0,2.0,71,0.00,,,0.00,meteohub,2013-03-08 07:28:00,
2013-03-08 01:33:00,29.5,21.6,29.78,ENE,68,1.0,2.0,72,0.00,,,0.00,meteohub,2013-03-08 07:33:00,
2013-03-08 01:38:00,29.5,21.6,29.78,ENE,68,0.0,3.0,72,0.00,,,0.00,meteohub,2013-03-08 07:38:00,
2013-03-08 01:43:00,29.3,21.4,29.78,ENE,68,2.0,3.0,72,0.00,,,0.00,meteohub,2013-03-08 07:43:00,
2013-03-08 01:48:00,29.5,21.6,29.78,ENE,68,2.0,2.0,72,0.00,,,0.00,meteohub,2013-03-08 07:48:00,
2013-03-08 01:54:00,29.5,21.6,29.78,ENE,68,1.0,2.0,72,0.00,,,0.00,meteohub,2013-03-08 07:54:00,
2013-03-08 01:59:00,29.5,21.9,29.78,East,90,2.0,3.0,73,0.00,,,0.00,meteohub,2013-03-08 07:59:00,
2013-03-08 02:04:00,29.3,21.7,29.78,ENE,68,1.0,3.0,73,0.00,,,0.00,meteohub,2013-03-08 08:04:00,
2013-03-08 02:09:00,29.3,21.7,29.78,ENE,68,2.0,3.0,73,0.00,,,0.00,meteohub,2013-03-08 08:09:00,
2013-03-08 02:14:00,29.3,21.7,29.78,NNE,22,3.0,3.0,73,0.00,,,0.00,meteohub,2013-03-08 08:14:00,
2013-03-08 02:19:00,29.5,22.3,29.78,ENE,68,3.0,3.0,74,0.00,,,0.00,meteohub,2013-03-08 08:19:00,
2013-03-08 02:24:00,29.5,22.6,29.75,ENE,68,3.0,5.0,75,0.00,,,0.00,meteohub,2013-03-08 08:24:00,
2013-03-08 02:29:00,29.5,22.3,29.75,East,90,2.0,5.0,74,0.00,,,0.00,meteohub,2013-03-08 08:29:00,
2013-03-08 02:34:00,29.5,22.3,29.75,East,90,1.0,5.0,74,0.00,,,0.00,meteohub,2013-03-08 08:34:00,
2013-03-08 02:39:00,29.3,22.1,29.75,ENE,68,3.0,4.0,74,0.00,,,0.00,meteohub,2013-03-08 08:39:00,
2013-03-08 02:44:00,29.5,22.6,29.75,ENE,68,3.0,3.0,75,0.00,,,0.00,meteohub,2013-03-08 08:44:00,
2013-03-08 02:50:00,29.5,22.3,29.75,East,90,2.0,4.0,74,0.00,,,0.00,meteohub,2013-03-08 08:50:00,
2013-03-08 02:55:00,29.5,22.3,29.78,East,90,2.0,4.0,74,0.00,,,0.00,meteohub,2013-03-08 08:55:00,
2013-03-08 03:00:00,29.5,22.3,29.78,ESE,112,0.0,4.0,74,0.00,,,0.00,meteohub,2013-03-08 09:00:00,
2013-03-08 03:05:00,28.9,21.7,29.78,East,90,0.0,3.0,74,0.00,,,0.00,meteohub,2013-03-08 09:05:00,
2013-03-08 03:10:00,28.8,21.6,29.78,East,90,0.0,3.0,74,0.00,,,0.00,meteohub,2013-03-08 09:10:00,
2013-03-08 03:15:00,28.6,21.4,29.78,East,90,0.0,0.0,74,0.00,,,0.00,meteohub,2013-03-08 09:15:00,
2013-03-08 03:20:00,28.4,21.2,29.78,East,90,0.0,0.0,74,0.00,,,0.00,meteohub,2013-03-08 09:20:00,
2013-03-08 03:25:00,28.4,21.2,29.78,East,90,0.0,0.0,74,0.00,,,0.00,meteohub,2013-03-08 09:25:00,
2013-03-08 03:30:00,28.2,21.4,29.78,ESE,112,0.0,0.0,75,0.00,,,0.00,meteohub,2013-03-08 09:30:00,
2013-03-08 03:35:00,28.0,21.2,29.78,ESE,112,0.0,0.0,75,0.00,,,0.00,meteohub,2013-03-08 09:35:00,
2013-03-08 03:40:00,27.9,21.0,29.78,ESE,112,0.0,0.0,75,0.00,,,0.00,meteohub,2013-03-08 09:40:00,
2013-03-08 03:46:00,27.7,20.8,29.78,ESE,112,0.0,0.0,75,0.00,,,0.00,meteohub,2013-03-08 09:46:00,
2013-03-08 03:51:00,27.7,20.5,29.78,East,90,0.0,0.0,74,0.00,,,0.00,meteohub,2013-03-08 09:51:00,
2013-03-08 03:56:00,27.9,21.0,29.78,ENE,68,0.0,0.0,75,0.00,,,0.00,meteohub,2013-03-08 09:56:00,
2013-03-08 04:01:00,27.9,21.0,29.78,ENE,68,2.0,2.0,75,0.00,,,0.00,meteohub,2013-03-08 10:01:00,
2013-03-08 04:06:00,27.9,21.0,29.78,ENE,68,0.0,2.0,75,0.00,,,0.00,meteohub,2013-03-08 10:06:00,
2013-03-08 04:11:00,27.5,20.7,29.81,ENE,68,0.0,2.0,75,0.00,,,0.00,meteohub,2013-03-08 10:11:00,
2013-03-08 04:16:00,27.7,20.8,29.81,NE,45,3.0,3.0,75,0.00,,,0.00,meteohub,2013-03-08 10:16:00,
2013-03-08 04:21:00,27.5,20.7,29.81,ENE,68,2.0,3.0,75,0.00,,,0.00,meteohub,2013-03-08 10:21:00,
2013-03-08 04:26:00,27.5,21.0,29.78,ENE,68,2.0,3.0,76,0.00,,,0.00,meteohub,2013-03-08 10:26:00,
2013-03-08 04:31:00,27.5,21.0,29.78,ENE,68,0.0,3.0,76,0.00,,,0.00,meteohub,2013-03-08 10:31:00,
2013-03-08 04:36:00,27.3,20.8,29.78,ENE,68,0.0,3.0,76,0.00,,,0.00,meteohub,2013-03-08 10:36:00,
2013-03-08 04:42:00,27.1,20.7,29.81,ENE,68,2.0,2.0,76,0.00,,,0.00,meteohub,2013-03-08 10:42:00,
2013-03-08 04:47:00,27.1,20.7,29.81,ENE,68,0.0,2.0,76,0.00,,,0.00,meteohub,2013-03-08 10:47:00,
2013-03-08 04:52:00,27.1,20.7,29.81,ENE,68,0.0,2.0,76,0.00,,,0.00,meteohub,2013-03-08 10:52:00,
2013-03-08 04:57:00,27.1,20.7,29.81,ENE,68,2.0,2.0,76,0.00,,,0.00,meteohub,2013-03-08 10:57:00,
2013-03-08 05:02:00,27.1,20.7,29.81,NE,45,1.0,2.0,76,0.00,,,0.00,meteohub,2013-03-08 11:02:00,
2013-03-08 05:07:00,27.1,20.7,29.81,NE,45,2.0,2.0,76,0.00,,,0.00,meteohub,2013-03-08 11:07:00,
2013-03-08 05:12:00,27.1,20.8,29.81,ENE,68,0.0,3.0,77,0.00,,,0.00,meteohub,2013-03-08 11:12:00,
2013-03-08 05:17:00,27.3,21.0,29.81,East,90,2.0,4.0,77,0.00,,,0.00,meteohub,2013-03-08 11:17:00,
2013-03-08 05:22:00,27.3,21.0,29.81,ENE,68,1.0,4.0,77,0.00,,,0.00,meteohub,2013-03-08 11:22:00,
2013-03-08 05:27:00,27.3,21.0,29.81,NE,45,1.0,4.0,77,0.00,,,0.00,meteohub,2013-03-08 11:27:00,
2013-03-08 05:32:00,27.3,21.0,29.81,ENE,68,2.0,4.0,77,0.00,,,0.00,meteohub,2013-03-08 11:32:00,
2013-03-08 05:37:00,27.1,21.2,29.81,NE,45,0.0,4.0,78,0.00,,,0.00,meteohub,2013-03-08 11:37:00,
2013-03-08 05:42:00,27.3,21.4,29.81,NE,45,1.0,2.0,78,0.00,,,0.00,meteohub,2013-03-08 11:42:00,
2013-03-08 05:47:00,27.3,21.4,29.81,ENE,68,0.0,2.0,78,0.00,,,0.00,meteohub,2013-03-08 11:47:00,
2013-03-08 05:52:00,27.3,21.4,29.81,ENE,68,1.0,2.0,78,0.00,,,0.00,meteohub,2013-03-08 11:52:00,
2013-03-08 05:57:00,27.1,21.2,29.81,ENE,68,0.0,2.0,78,0.00,,,0.00,meteohub,2013-03-08 11:57:00,
2013-03-08 06:02:00,27.5,21.6,29.81,ENE,68,1.0,2.0,78,0.00,,,0.00,meteohub,2013-03-08 12:02:00,
2013-03-08 06:07:00,27.5,21.6,29.81,ENE,68,0.0,2.0,78,0.00,,,0.00,meteohub,2013-03-08 12:07:00,
2013-03-08 06:12:00,27.5,21.6,29.81,ENE,68,1.0,2.0,78,0.00,,,0.00,meteohub,2013-03-08 12:12:00,
2013-03-08 06:17:00,27.5,21.6,29.81,ENE,68,0.0,2.0,78,0.00,,,0.00,meteohub,2013-03-08 12:17:00,
2013-03-08 06:22:00,27.5,21.6,29.81,ENE,68,1.0,1.0,78,0.00,,,0.00,meteohub,2013-03-08 12:22:00,
2013-03-08 06:27:00,27.5,21.6,29.81,NE,45,0.0,1.0,78,0.00,,,0.00,meteohub,2013-03-08 12:27:00,
2013-03-08 06:32:00,27.7,21.7,29.81,ENE,68,1.0,1.0,78,0.00,,,0.00,meteohub,2013-03-08 12:32:00,
2013-03-08 06:37:00,27.9,21.9,29.81,ENE,68,0.0,2.0,78,0.00,,,0.00,meteohub,2013-03-08 12:37:00,
2013-03-08 06:42:00,27.9,21.9,29.81,ENE,68,0.0,2.0,78,0.00,,,0.00,meteohub,2013-03-08 12:42:00,
2013-03-08 06:47:00,27.9,21.9,29.81,ENE,68,0.0,2.0,78,0.00,,,0.00,meteohub,2013-03-08 12:47:00,
2013-03-08 06:52:00,28.0,22.1,29.81,ENE,68,0.0,2.0,78,0.00,,,0.00,meteohub,2013-03-08 12:52:00,
2013-03-08 06:57:00,28.4,22.5,29.81,ENE,68,2.0,2.0,78,0.00,,,0.00,meteohub,2013-03-08 12:57:00,
2013-03-08 07:02:00,28.8,22.8,29.81,ENE,68,1.0,2.0,78,0.00,,,0.00,meteohub,2013-03-08 13:02:00,
2013-03-08 07:07:00,29.1,23.4,29.81,NE,45,2.0,2.0,79,0.00,,,0.00,meteohub,2013-03-08 13:07:00,
2013-03-08 07:12:00,29.5,23.7,29.78,ENE,68,2.0,3.0,79,0.00,,,0.00,meteohub,2013-03-08 13:12:00,
2013-03-08 07:18:00,29.8,24.1,29.78,East,90,2.0,3.0,79,0.00,,,0.00,meteohub,2013-03-08 13:18:00,
2013-03-08 07:23:00,30.2,24.4,29.78,East,90,3.0,4.0,79,0.00,,,0.00,meteohub,2013-03-08 13:23:00,
2013-03-08 07:28:00,30.6,24.8,29.78,East,90,3.0,4.0,79,0.00,,,0.00,meteohub,2013-03-08 13:28:00,
2013-03-08 07:33:00,31.1,25.3,29.78,ENE,68,2.0,4.0,79,0.00,,,0.00,meteohub,2013-03-08 13:33:00,
2013-03-08 07:38:00,31.5,25.3,29.81,ESE,112,3.0,5.0,78,0.00,,,0.00,meteohub,2013-03-08 13:38:00,
2013-03-08 07:43:00,32.2,26.1,29.81,East,90,1.0,5.0,78,0.00,,,0.00,meteohub,2013-03-08 13:43:00,
2013-03-08 07:48:00,32.7,26.1,29.81,East,90,4.0,6.0,76,0.00,,,0.00,meteohub,2013-03-08 13:48:00,
2013-03-08 07:53:00,33.1,26.1,29.78,East,90,2.0,6.0,75,0.00,,,0.00,meteohub,2013-03-08 13:53:00,
2013-03-08 07:58:00,34.0,26.6,29.78,ESE,112,4.0,6.0,74,0.00,,,0.00,meteohub,2013-03-08 13:58:00,
2013-03-08 08:04:00,34.5,26.8,29.78,East,90,3.0,6.0,73,0.00,,,0.00,meteohub,2013-03-08 14:04:00,
2013-03-08 08:09:00,35.4,27.0,29.81,ESE,112,4.0,6.0,71,0.00,,,0.00,meteohub,2013-03-08 14:09:00,
2013-03-08 08:14:00,36.3,27.5,29.81,ESE,112,3.0,6.0,70,0.00,,,0.00,meteohub,2013-03-08 14:14:00,
2013-03-08 08:19:00,36.5,26.2,29.81,East,90,3.0,6.0,66,0.00,,,0.00,meteohub,2013-03-08 14:19:00,
2013-03-08 08:24:00,37.0,26.8,29.81,ENE,68,3.0,7.0,66,0.00,,,0.00,meteohub,2013-03-08 14:24:00,
2013-03-08 08:29:00,37.4,26.1,29.81,East,90,3.0,7.0,63,0.00,,,0.00,meteohub,2013-03-08 14:29:00,
2013-03-08 08:34:00,37.8,25.5,29.81,East,90,2.0,7.0,61,0.00,,,0.00,meteohub,2013-03-08 14:34:00,
2013-03-08 08:39:00,37.9,25.0,29.81,ESE,112,2.0,7.0,59,0.00,,,0.00,meteohub,2013-03-08 14:39:00,
2013-03-08 08:45:00,37.9,24.4,29.81,ENE,68,6.0,7.0,58,0.00,,,0.00,meteohub,2013-03-08 14:45:00,
2013-03-08 08:50:00,38.1,23.9,29.81,SE,135,4.0,8.0,56,0.00,,,0.00,meteohub,2013-03-08 14:50:00,
2013-03-08 08:55:00,39.2,24.8,29.84,East,90,4.0,9.0,56,0.00,,,0.00,meteohub,2013-03-08 14:55:00,
2013-03-08 09:00:00,39.6,24.8,29.84,SE,135,3.0,9.0,55,0.00,,,0.00,meteohub,2013-03-08 15:00:00,
2013-03-08 09:05:00,41.2,27.1,29.84,SE,135,4.0,9.0,57,0.00,,,0.00,meteohub,2013-03-08 15:05:00,
2013-03-08 09:10:00,41.0,26.1,29.84,SSE,158,2.0,7.0,55,0.00,,,0.00,meteohub,2013-03-08 15:10:00,
2013-03-08 09:15:00,40.8,24.6,29.84,ESE,112,6.0,6.0,52,0.00,,,0.00,meteohub,2013-03-08 15:15:00,
2013-03-08 09:20:00,41.5,25.7,29.84,South,180,2.0,9.0,53,0.00,,,0.00,meteohub,2013-03-08 15:20:00,
2013-03-08 09:26:00,42.4,26.1,29.84,SSE,158,6.0,9.0,52,0.00,,,0.00,meteohub,2013-03-08 15:26:00,
2013-03-08 09:31:00,42.1,25.3,29.84,South,180,6.0,9.0,51,0.00,,,0.00,meteohub,2013-03-08 15:31:00,
2013-03-08 09:36:00,41.9,25.2,29.84,NE,45,8.0,8.0,51,0.00,,,0.00,meteohub,2013-03-08 15:36:00,
2013-03-08 09:41:00,41.9,24.3,29.84,East,90,7.0,10.0,49,0.00,,,0.00,meteohub,2013-03-08 15:41:00,
2013-03-08 09:46:00,41.9,24.6,29.84,SSE,158,3.0,10.0,50,0.00,,,0.00,meteohub,2013-03-08 15:46:00,
2013-03-08 09:51:00,42.8,25.5,29.84,South,180,4.0,10.0,50,0.00,,,0.00,meteohub,2013-03-08 15:51:00,
2013-03-08 09:56:00,42.6,24.3,29.84,ESE,112,6.0,8.0,48,0.00,,,0.00,meteohub,2013-03-08 15:56:00,
2013-03-08 10:01:00,42.4,24.6,29.84,SE,135,4.0,7.0,49,0.00,,,0.00,meteohub,2013-03-08 16:01:00,
2013-03-08 10:07:00,42.4,24.3,29.84,ESE,112,8.0,8.0,48,0.00,,,0.00,meteohub,2013-03-08 16:07:00,
2013-03-08 10:12:00,42.1,23.9,29.84,SE,135,4.0,9.0,48,0.00,,,0.00,meteohub,2013-03-08 16:12:00,
2013-03-08 10:17:00,43.0,25.2,29.84,SE,135,4.0,9.0,49,0.00,,,0.00,meteohub,2013-03-08 16:17:00,
2013-03-08 10:22:00,43.7,25.9,29.84,SE,135,5.0,9.0,49,0.00,,,0.00,meteohub,2013-03-08 16:22:00,
2013-03-08 10:27:00,43.9,25.5,29.81,NE,45,2.0,8.0,48,0.00,,,0.00,meteohub,2013-03-08 16:27:00,
2013-03-08 10:32:00,43.3,25.0,29.81,SE,135,6.0,8.0,48,0.00,,,0.00,meteohub,2013-03-08 16:32:00,
2013-03-08 10:37:00,43.5,25.2,29.81,ENE,68,6.0,8.0,48,0.00,,,0.00,meteohub,2013-03-08 16:37:00,
2013-03-08 10:42:00,43.5,25.2,29.81,SSE,158,6.0,8.0,48,0.00,,,0.00,meteohub,2013-03-08 16:42:00,
2013-03-08 10:47:00,44.2,25.3,29.81,ESE,112,3.0,8.0,47,0.00,,,0.00,meteohub,2013-03-08 16:47:00,
2013-03-08 10:52:00,43.5,24.1,29.81,ENE,68,7.0,8.0,46,0.00,,,0.00,meteohub,2013-03-08 16:52:00,
2013-03-08 10:57:00,43.7,24.3,29.81,SE,135,6.0,9.0,46,0.00,,,0.00,meteohub,2013-03-08 16:57:00,
2013-03-08 11:02:00,44.1,24.1,29.81,NE,45,6.0,10.0,45,0.00,,,0.00,meteohub,2013-03-08 17:02:00,
2013-03-08 11:07:00,45.1,25.2,29.81,SSE,158,3.0,10.0,45,0.00,,,0.00,meteohub,2013-03-08 17:07:00,
2013-03-08 11:12:00,45.7,25.5,29.81,ESE,112,5.0,10.0,45,0.00,,,0.00,meteohub,2013-03-08 17:12:00,
2013-03-08 11:17:00,45.5,25.5,29.81,East,90,3.0,10.0,45,0.00,,,0.00,meteohub,2013-03-08 17:17:00,
2013-03-08 11:22:00,46.6,27.0,29.81,ESE,112,6.0,10.0,46,0.00,,,0.00,meteohub,2013-03-08 17:22:00,
2013-03-08 11:28:00,46.4,25.7,29.81,East,90,3.0,10.0,44,0.00,,,0.00,meteohub,2013-03-08 17:28:00,
2013-03-08 11:33:00,46.6,25.9,29.81,ESE,112,2.0,6.0,44,0.00,,,0.00,meteohub,2013-03-08 17:33:00,
2013-03-08 11:38:00,47.3,26.6,29.81,South,180,4.0,8.0,44,0.00,,,0.00,meteohub,2013-03-08 17:38:00,
2013-03-08 11:43:00,46.6,24.3,29.81,SSE,158,6.0,8.0,41,0.00,,,0.00,meteohub,2013-03-08 17:43:00,
2013-03-08 11:48:00,46.8,25.5,29.81,South,180,4.0,9.0,43,0.00,,,0.00,meteohub,2013-03-08 17:48:00,
2013-03-08 11:53:00,47.3,26.1,29.81,ESE,112,6.0,9.0,43,0.00,,,0.00,meteohub,2013-03-08 17:53:00,
2013-03-08 11:58:00,46.9,24.4,29.81,East,90,6.0,9.0,41,0.00,,,0.00,meteohub,2013-03-08 17:58:00,
2013-03-08 12:03:00,47.1,24.6,29.81,NE,45,6.0,10.0,41,0.00,,,0.00,meteohub,2013-03-08 18:03:00,
2013-03-08 12:08:00,47.5,25.5,29.81,ENE,68,4.0,12.0,42,0.00,,,0.00,meteohub,2013-03-08 18:08:00,
2013-03-08 12:14:00,48.2,26.2,29.78,East,90,4.0,12.0,42,0.00,,,0.00,meteohub,2013-03-08 18:14:00,
2013-03-08 12:19:00,49.1,27.7,29.78,East,90,6.0,10.0,43,0.00,,,0.00,meteohub,2013-03-08 18:19:00,
2013-03-08 12:24:00,47.8,25.3,29.75,NNE,22,5.0,8.0,41,0.00,,,0.00,meteohub,2013-03-08 18:24:00,
2013-03-08 12:29:00,48.6,26.1,29.75,East,90,3.0,11.0,41,0.00,,,0.00,meteohub,2013-03-08 18:29:00,
2013-03-08 12:34:00,48.7,25.5,29.75,NE,45,5.0,12.0,40,0.00,,,0.00,meteohub,2013-03-08 18:34:00,
2013-03-08 12:39:00,48.0,24.3,29.75,East,90,9.0,12.0,39,0.00,,,0.00,meteohub,2013-03-08 18:39:00,
2013-03-08 12:44:00,48.2,24.4,29.75,East,90,6.0,13.0,39,0.00,,,0.00,meteohub,2013-03-08 18:44:00,
2013-03-08 12:49:00,48.4,24.6,29.75,ENE,68,6.0,13.0,39,0.00,,,0.00,meteohub,2013-03-08 18:49:00,
2013-03-08 12:54:00,48.9,25.7,29.75,SE,135,3.0,13.0,40,0.00,,,0.00,meteohub,2013-03-08 18:54:00,
2013-03-08 12:59:00,50.0,26.1,29.75,ESE,112,6.0,10.0,39,0.00,,,0.00,meteohub,2013-03-08 18:59:00,
2013-03-08 13:04:00,50.0,26.1,29.75,East,90,6.0,10.0,39,0.00,,,0.00,meteohub,2013-03-08 19:04:00,
2013-03-08 13:10:00,50.0,26.1,29.75,South,180,3.0,10.0,39,0.00,,,0.00,meteohub,2013-03-08 19:10:00,
2013-03-08 13:15:00,51.3,27.1,29.75,ESE,112,4.0,11.0,39,0.00,,,0.00,meteohub,2013-03-08 19:15:00,
2013-03-08 13:20:00,51.6,27.0,29.75,East,90,8.0,11.0,38,0.00,,,0.00,meteohub,2013-03-08 19:20:00,
2013-03-08 13:25:00,51.8,27.0,29.75,ENE,68,3.0,9.0,38,0.00,,,0.00,meteohub,2013-03-08 19:25:00,
2013-03-08 13:30:00,51.3,25.9,29.75,East,90,10.0,10.0,37,0.00,,,0.00,meteohub,2013-03-08 19:30:00,
2013-03-08 13:35:00,51.8,26.4,29.75,ENE,68,9.0,10.0,37,0.00,,,0.00,meteohub,2013-03-08 19:35:00,
2013-03-08 13:40:00,51.8,25.7,29.72,ESE,112,8.0,10.0,36,0.00,,,0.00,meteohub,2013-03-08 19:40:00,
2013-03-08 13:45:00,51.6,25.5,29.72,SE,135,6.0,10.0,36,0.00,,,0.00,meteohub,2013-03-08 19:45:00,
2013-03-08 13:50:00,51.6,26.2,29.72,East,90,5.0,9.0,37,0.00,,,0.00,meteohub,2013-03-08 19:50:00,
2013-03-08 13:56:00,50.9,25.5,29.72,ENE,68,5.0,13.0,37,0.00,,,0.00,meteohub,2013-03-08 19:56:00,
2013-03-08 14:01:00,52.5,26.4,29.72,SSE,158,3.0,13.0,36,0.00,,,0.00,meteohub,2013-03-08 20:01:00,
2013-03-08 14:06:00,53.1,26.8,29.72,NE,45,4.0,13.0,36,0.00,,,0.00,meteohub,2013-03-08 20:06:00,
2013-03-08 14:11:00,53.1,26.8,29.72,East,90,4.0,9.0,36,0.00,,,0.00,meteohub,2013-03-08 20:11:00,
2013-03-08 14:16:00,53.8,27.5,29.72,South,180,4.0,8.0,36,0.00,,,0.00,meteohub,2013-03-08 20:16:00,
2013-03-08 14:21:00,53.2,26.4,29.72,SE,135,5.0,8.0,35,0.00,,,0.00,meteohub,2013-03-08 20:21:00,
2013-03-08 14:26:00,52.5,25.7,29.72,ENE,68,8.0,10.0,35,0.00,,,0.00,meteohub,2013-03-08 20:26:00,
2013-03-08 14:31:00,54.0,27.0,29.72,ESE,112,6.0,10.0,35,0.00,,,0.00,meteohub,2013-03-08 20:31:00,
2013-03-08 14:36:00,53.2,27.0,29.72,East,90,7.0,10.0,36,0.00,,,0.00,meteohub,2013-03-08 20:36:00,
2013-03-08 14:42:00,54.0,27.0,29.72,East,90,4.0,10.0,35,0.00,,,0.00,meteohub,2013-03-08 20:42:00,
2013-03-08 14:47:00,54.5,27.5,29.72,ESE,112,3.0,10.0,35,0.00,,,0.00,meteohub,2013-03-08 20:47:00,
2013-03-08 14:52:00,53.2,25.0,29.72,ENE,68,6.0,10.0,33,0.00,,,0.00,meteohub,2013-03-08 20:52:00,
2013-03-08 14:57:00,53.8,26.1,29.69,ESE,112,2.0,10.0,34,0.00,,,0.00,meteohub,2013-03-08 20:57:00,
2013-03-08 15:02:00,54.7,27.7,29.69,East,90,4.0,10.0,35,0.00,,,0.00,meteohub,2013-03-08 21:02:00,
2013-03-08 15:07:00,54.5,27.5,29.69,East,90,5.0,9.0,35,0.00,,,0.00,meteohub,2013-03-08 21:07:00,
2013-03-08 15:12:00,54.0,26.2,29.72,ENE,68,3.0,9.0,34,0.00,,,0.00,meteohub,2013-03-08 21:12:00,
2013-03-08 15:17:00,54.0,27.0,29.72,ENE,68,2.0,9.0,35,0.00,,,0.00,meteohub,2013-03-08 21:17:00,
2013-03-08 15:22:00,53.6,26.6,29.72,North,0,5.0,9.0,35,0.00,,,0.00,meteohub,2013-03-08 21:22:00,
2013-03-08 15:27:00,53.8,26.8,29.69,ENE,68,4.0,9.0,35,0.00,,,0.00,meteohub,2013-03-08 21:27:00,
2013-03-08 15:32:00,53.2,27.0,29.69,SSE,158,3.0,9.0,36,0.00,,,0.00,meteohub,2013-03-08 21:32:00,
2013-03-08 15:37:00,52.9,26.8,29.69,SW,225,3.0,9.0,36,0.00,,,0.00,meteohub,2013-03-08 21:37:00,
2013-03-08 15:42:00,52.5,25.7,29.72,East,90,4.0,9.0,35,0.00,,,0.00,meteohub,2013-03-08 21:42:00,
2013-03-08 15:47:00,53.1,26.2,29.72,ESE,112,4.0,11.0,35,0.00,,,0.00,meteohub,2013-03-08 21:47:00,
2013-03-08 15:52:00,52.9,26.1,29.72,ENE,68,4.0,11.0,35,0.00,,,0.00,meteohub,2013-03-08 21:52:00,
2013-03-08 15:57:00,52.7,25.9,29.69,ESE,112,4.0,8.0,35,0.00,,,0.00,meteohub,2013-03-08 21:57:00,
2013-03-08 16:02:00,52.5,25.7,29.69,ESE,112,4.0,8.0,35,0.00,,,0.00,meteohub,2013-03-08 22:02:00,
2013-03-08 16:07:00,51.8,24.4,29.69,ENE,68,4.0,7.0,34,0.00,,,0.00,meteohub,2013-03-08 22:07:00,
2013-03-08 16:12:00,52.3,25.5,29.69,ESE,112,4.0,7.0,35,0.00,,,0.00,meteohub,2013-03-08 22:12:00,
2013-03-08 16:17:00,52.7,26.6,29.69,South,180,4.0,7.0,36,0.00,,,0.00,meteohub,2013-03-08 22:17:00,
2013-03-08 16:22:00,52.3,25.5,29.69,ESE,112,3.0,7.0,35,0.00,,,0.00,meteohub,2013-03-08 22:22:00,
2013-03-08 16:27:00,52.0,25.2,29.69,ENE,68,4.0,8.0,35,0.00,,,0.00,meteohub,2013-03-08 22:27:00,
2013-03-08 16:32:00,51.6,25.0,29.69,ESE,112,4.0,8.0,35,0.00,,,0.00,meteohub,2013-03-08 22:32:00,
2013-03-08 16:37:00,51.3,25.3,29.69,East,90,3.0,8.0,36,0.00,,,0.00,meteohub,2013-03-08 22:37:00,
2013-03-08 16:42:00,50.9,25.0,29.69,East,90,2.0,8.0,36,0.00,,,0.00,meteohub,2013-03-08 22:42:00,
2013-03-08 16:47:00,50.5,24.6,29.69,ESE,112,2.0,6.0,36,0.00,,,0.00,meteohub,2013-03-08 22:47:00,
2013-03-08 16:52:00,50.2,24.3,29.69,East,90,2.0,6.0,36,0.00,,,0.00,meteohub,2013-03-08 22:52:00,
2013-03-08 16:57:00,49.8,24.6,29.69,ESE,112,3.0,6.0,37,0.00,,,0.00,meteohub,2013-03-08 22:57:00,
2013-03-08 17:02:00,49.3,24.1,29.69,ESE,112,3.0,6.0,37,0.00,,,0.00,meteohub,2013-03-08 23:02:00,
2013-03-08 17:07:00,49.1,24.1,29.69,SE,135,4.0,4.0,37,0.00,,,0.00,meteohub,2013-03-08 23:07:00,
2013-03-08 17:13:00,48.9,23.9,29.69,ENE,68,3.0,4.0,37,0.00,,,0.00,meteohub,2013-03-08 23:13:00,
2013-03-08 17:18:00,49.1,24.6,29.69,East,90,4.0,4.0,38,0.00,,,0.00,meteohub,2013-03-08 23:18:00,
2013-03-08 17:23:00,48.9,24.4,29.69,ESE,112,3.0,4.0,38,0.00,,,0.00,meteohub,2013-03-08 23:23:00,
2013-03-08 17:28:00,48.9,24.4,29.69,ESE,112,2.0,5.0,38,0.00,,,0.00,meteohub,2013-03-08 23:28:00,
2013-03-08 17:33:00,48.7,24.3,29.69,East,90,2.0,5.0,38,0.00,,,0.00,meteohub,2013-03-08 23:33:00,
2013-03-08 17:38:00,48.4,24.1,29.69,East,90,4.0,5.0,38,0.00,,,0.00,meteohub,2013-03-08 23:38:00,
2013-03-08 17:43:00,48.2,24.4,29.69,SE,135,1.0,5.0,39,0.00,,,0.00,meteohub,2013-03-08 23:43:00,
2013-03-08 17:48:00,47.7,23.9,29.69,SE,135,2.0,5.0,39,0.00,,,0.00,meteohub,2013-03-08 23:48:00,
2013-03-08 17:53:00,47.3,24.3,29.69,SE,135,3.0,5.0,40,0.00,,,0.00,meteohub,2013-03-08 23:53:00,
2013-03-08 17:59:00,46.9,23.9,29.69,ESE,112,3.0,4.0,40,0.00,,,0.00,meteohub,2013-03-08 23:59:00,
2013-03-08 18:04:00,46.6,23.5,29.69,ESE,112,2.0,4.0,40,0.00,,,0.00,meteohub,2013-03-09 00:04:00,
2013-03-08 18:09:00,46.4,24.1,29.69,ESE,112,0.0,4.0,41,0.00,,,0.00,meteohub,2013-03-09 00:09:00,
2013-03-08 18:14:00,46.0,23.7,29.69,ESE,112,0.0,4.0,41,0.00,,,0.00,meteohub,2013-03-09 00:14:00,
2013-03-08 18:19:00,45.7,23.9,29.69,ESE,112,0.0,4.0,42,0.00,,,0.00,meteohub,2013-03-09 00:19:00,
2013-03-08 18:24:00,45.3,23.5,29.69,ESE,112,0.0,1.0,42,0.00,,,0.00,meteohub,2013-03-09 00:24:00,
2013-03-08 18:29:00,45.1,23.5,29.69,ESE,112,1.0,1.0,42,0.00,,,0.00,meteohub,2013-03-09 00:29:00,
2013-03-08 18:35:00,45.1,24.1,29.69,ENE,68,1.0,0.0,43,0.00,,,0.00,meteohub,2013-03-09 00:35:00,
2013-03-08 18:40:00,44.6,24.1,29.69,ENE,68,0.0,2.0,44,0.00,,,0.00,meteohub,2013-03-09 00:40:00,
2013-03-08 18:45:00,44.4,23.9,29.69,ENE,68,2.0,2.0,44,0.00,,,0.00,meteohub,2013-03-09 00:45:00,
2013-03-08 18:50:00,44.4,24.4,29.69,ENE,68,2.0,3.0,45,0.00,,,0.00,meteohub,2013-03-09 00:50:00,
2013-03-08 18:55:00,44.4,24.4,29.69,ENE,68,2.0,3.0,45,0.00,,,0.00,meteohub,2013-03-09 00:55:00,
2013-03-08 19:00:00,44.2,24.8,29.69,ENE,68,2.0,3.0,46,0.00,,,0.00,meteohub,2013-03-09 01:00:00,
2013-03-08 19:05:00,44.1,24.6,29.69,ENE,68,1.0,3.0,46,0.00,,,0.00,meteohub,2013-03-09 01:05:00,
2013-03-08 19:10:00,43.9,25.0,29.66,ENE,68,3.0,3.0,47,0.00,,,0.00,meteohub,2013-03-09 01:10:00,
2013-03-08 19:15:00,44.1,25.2,29.66,ENE,68,3.0,4.0,47,0.00,,,0.00,meteohub,2013-03-09 01:15:00,
2013-03-08 19:20:00,43.7,24.8,29.66,ENE,68,3.0,4.0,47,0.00,,,0.00,meteohub,2013-03-09 01:20:00,
2013-03-08 19:26:00,43.7,24.8,29.69,ESE,112,2.0,4.0,47,0.00,,,0.00,meteohub,2013-03-09 01:26:00,
2013-03-08 19:31:00,43.5,24.6,29.69,ENE,68,2.0,4.0,47,0.00,,,0.00,meteohub,2013-03-09 01:31:00,
2013-03-08 19:36:00,43.5,24.6,29.69,ENE,68,1.0,3.0,47,0.00,,,0.00,meteohub,2013-03-09 01:36:00,
2013-03-08 19:41:00,43.2,24.3,29.69,East,90,3.0,3.0,47,0.00,,,0.00,meteohub,2013-03-09 01:41:00,
2013-03-08 19:46:00,43.2,24.8,29.69,East,90,3.0,3.0,48,0.00,,,0.00,meteohub,2013-03-09 01:46:00,
2013-03-08 19:51:00,43.2,24.8,29.69,East,90,2.0,4.0,48,0.00,,,0.00,meteohub,2013-03-09 01:51:00,
2013-03-08 19:56:00,43.0,24.6,29.69,East,90,3.0,5.0,48,0.00,,,0.00,meteohub,2013-03-09 01:56:00,
2013-03-08 20:01:00,43.0,24.6,29.69,East,90,2.0,5.0,48,0.00,,,0.00,meteohub,2013-03-09 02:01:00,
2013-03-08 20:06:00,43.0,25.2,29.69,East,90,4.0,5.0,49,0.00,,,0.00,meteohub,2013-03-09 02:06:00,
2013-03-08 20:11:00,43.2,25.3,29.69,ESE,112,5.0,6.0,49,0.00,,,0.00,meteohub,2013-03-09 02:11:00,
2013-03-08 20:17:00,43.2,25.3,29.69,NE,45,4.0,6.0,49,0.00,,,0.00,meteohub,2013-03-09 02:17:00,
2013-03-08 20:22:00,43.0,25.2,29.69,East,90,2.0,6.0,49,0.00,,,0.00,meteohub,2013-03-09 02:22:00,
2013-03-08 20:27:00,43.2,25.3,29.69,East,90,2.0,5.0,49,0.00,,,0.00,meteohub,2013-03-09 02:27:00,
2013-03-08 20:32:00,43.2,25.3,29.69,East,90,3.0,6.0,49,0.00,,,0.00,meteohub,2013-03-09 02:32:00,
2013-03-08 20:37:00,43.2,25.3,29.69,East,90,3.0,6.0,49,0.00,,,0.00,meteohub,2013-03-09 02:37:00,
2013-03-08 20:42:00,43.0,25.2,29.66,ENE,68,2.0,4.0,49,0.00,,,0.00,meteohub,2013-03-09 02:42:00,
2013-03-08 20:47:00,43.0,25.2,29.66,South,180,2.0,4.0,49,0.00,,,0.00,meteohub,2013-03-09 02:47:00,
2013-03-08 20:52:00,42.8,25.5,29.66,East,90,2.0,4.0,50,0.00,,,0.00,meteohub,2013-03-09 02:52:00,
2013-03-08 20:57:00,43.0,25.7,29.72,ENE,68,3.0,3.0,50,0.00,,,0.00,meteohub,2013-03-09 02:57:00,
2013-03-08 21:02:00,43.0,26.1,29.72,ENE,68,4.0,4.0,51,0.00,,,0.00,meteohub,2013-03-09 03:02:00,
2013-03-08 21:07:00,43.0,26.1,29.72,East,90,5.0,5.0,51,0.00,,,0.00,meteohub,2013-03-09 03:07:00,
2013-03-08 21:12:00,43.0,26.1,29.69,East,90,5.0,6.0,51,0.00,,,0.00,meteohub,2013-03-09 03:12:00,
2013-03-08 21:17:00,43.0,26.1,29.69,ENE,68,5.0,6.0,51,0.00,,,0.00,meteohub,2013-03-09 03:17:00,
2013-03-08 21:22:00,43.0,26.1,29.69,East,90,4.0,6.0,51,0.00,,,0.00,meteohub,2013-03-09 03:22:00,
2013-03-08 21:27:00,43.2,26.2,29.69,ENE,68,4.0,6.0,51,0.00,,,0.00,meteohub,2013-03-09 03:27:00,
2013-03-08 21:32:00,43.0,26.1,29.69,ENE,68,5.0,9.0,51,0.00,,,0.00,meteohub,2013-03-09 03:32:00,
2013-03-08 21:37:00,43.0,26.1,29.69,East,90,3.0,9.0,51,0.00,,,0.00,meteohub,2013-03-09 03:37:00,
2013-03-08 21:42:00,43.0,26.1,29.69,South,180,1.0,5.0,51,0.00,,,0.00,meteohub,2013-03-09 03:42:00,
2013-03-08 21:47:00,43.0,26.1,29.69,ESE,112,1.0,5.0,51,0.00,,,0.00,meteohub,2013-03-09 03:47:00,
2013-03-08 21:52:00,42.8,25.9,29.69,East,90,3.0,5.0,51,0.00,,,0.00,meteohub,2013-03-09 03:52:00,
2013-03-08 21:57:00,43.0,26.1,29.69,ESE,112,1.0,3.0,51,0.00,,,0.00,meteohub,2013-03-09 03:57:00,
2013-03-08 22:02:00,42.8,25.9,29.69,ENE,68,2.0,4.0,51,0.00,,,0.00,meteohub,2013-03-09 04:02:00,
2013-03-08 22:08:00,42.8,25.9,29.69,East,90,2.0,4.0,51,0.00,,,0.00,meteohub,2013-03-09 04:08:00,
2013-03-08 22:13:00,42.8,25.9,29.69,ENE,68,2.0,4.0,51,0.00,,,0.00,meteohub,2013-03-09 04:13:00,
2013-03-08 22:18:00,42.8,25.9,29.69,East,90,2.0,4.0,51,0.00,,,0.00,meteohub,2013-03-09 04:18:00,
2013-03-08 22:23:00,42.8,25.9,29.69,East,90,3.0,4.0,51,0.00,,,0.00,meteohub,2013-03-09 04:23:00,
2013-03-08 22:28:00,42.8,25.9,29.69,East,90,2.0,4.0,51,0.00,,,0.00,meteohub,2013-03-09 04:28:00,
2013-03-08 22:33:00,42.8,26.4,29.69,East,90,2.0,3.0,52,0.00,,,0.00,meteohub,2013-03-09 04:33:00,
2013-03-08 22:38:00,42.6,26.2,29.69,East,90,0.0,3.0,52,0.00,,,0.00,meteohub,2013-03-09 04:38:00,
2013-03-08 22:43:00,42.8,25.9,29.69,ENE,68,2.0,3.0,51,0.00,,,0.00,meteohub,2013-03-09 04:43:00,
2013-03-08 22:48:00,42.8,25.9,29.69,ENE,68,4.0,4.0,51,0.00,,,0.00,meteohub,2013-03-09 04:48:00,
2013-03-08 22:53:00,42.8,25.9,29.69,ENE,68,2.0,4.0,51,0.00,,,0.00,meteohub,2013-03-09 04:53:00,
2013-03-08 22:59:00,42.8,25.9,29.69,East,90,0.0,4.0,51,0.00,,,0.00,meteohub,2013-03-09 04:59:00,
2013-03-08 23:00:00,42.8,25.9,29.69,East,90,0.0,4.0,51,0.00,,,0.00,meteohub,2013-03-09 05:00:00,
2013-03-08 23:01:00,42.8,25.9,29.69,East,90,0.0,4.0,51,0.00,,,0.00,meteohub,2013-03-09 05:01:00,
2013-03-08 23:02:00,42.6,26.2,29.69,East,90,0.0,4.0,52,0.00,,,0.00,meteohub,2013-03-09 05:02:00,
2013-03-08 23:07:00,42.6,26.2,29.69,ENE,68,2.0,3.0,52,0.00,,,0.00,meteohub,2013-03-09 05:07:00,
2013-03-08 23:12:00,42.6,26.2,29.69,East,90,3.0,3.0,52,0.00,,,0.00,meteohub,2013-03-09 05:12:00,
2013-03-08 23:17:00,42.6,25.9,29.69,East,90,2.0,4.0,51,0.00,,,0.00,meteohub,2013-03-09 05:17:00,
2013-03-08 23:22:00,42.8,25.9,29.69,East,90,6.0,6.0,51,0.00,,,0.00,meteohub,2013-03-09 05:22:00,
2013-03-08 23:27:00,42.6,25.9,29.66,West,270,1.0,6.0,51,0.00,,,0.00,meteohub,2013-03-09 05:27:00,
2013-03-08 23:32:00,42.6,25.9,29.66,ESE,112,2.0,7.0,51,0.00,,,0.00,meteohub,2013-03-09 05:32:00,
2013-03-08 23:38:00,42.6,25.9,29.66,ENE,68,4.0,7.0,51,0.00,,,0.00,meteohub,2013-03-09 05:38:00,
2013-03-08 23:43:00,42.6,25.9,29.63,East,90,5.0,5.0,51,0.00,,,0.00,meteohub,2013-03-09 05:43:00,
2013-03-08 23:48:00,42.6,25.9,29.63,ESE,112,3.0,6.0,51,0.00,,,0.00,meteohub,2013-03-09 05:48:00,
2013-03-08 23:53:00,42.8,25.5,29.60,ENE,68,3.0,6.0,50,0.00,,,0.00,meteohub,2013-03-09 05:53:00,
2013-03-08 23:58:00,42.8,25.5,29.60,East,90,2.0,6.0,50,0.00,,,0.00,meteohub,2013-03-09 05:58:00,